»·PEaware :: N35KF KBLH-F70

N35KF :: KBLH-F70

FLIGHT INFORMATION

Flight Status: Arrived
Operator: Privately registered:
United States
More flights under this callsign
Pilot: Alex K. (14822)
Aircraft: BEECH AIRCRAFT BONANZA
(BE35)
More flights by this aircraft type
Origin: KBLH Blythe
United States
Destination: F70 French Valley
United States
More flights between these airports :: More routes between these airports
Route:
File this flight plan on PilotEdge
Remarks: https / / www.twitch.tv / knightmare_frame
Altitude:
(Current/Filed)
6,500ft
Speed:
(Current/Filed)
160kts
Departed: 08-Jan-18 10:30 AM
Arrived: 08-Jan-18 11:27 AM
Distance/Time
Traveled:
121nm/0:57
Distance/Time
To Go:
Arrived

Flight Plot

Page will automatically refresh every two minutes.

Flight plan parsing failed; only flown route is shown


Map Options




Map Legend


Flown Route
Filed Route
Departure Airport
Arrival Airport
Navaid (VOR, NDB)
Fix

Horizontal Profiles

Position Reports

Time Latitude Longitude Heading Altitude Ground
Speed
08-Jan-18 10:23 33.614051 -114.713085 90 394ft 0kts
08-Jan-18 10:24 33.614051 -114.713085 90 394ft 0kts
08-Jan-18 10:25 33.614051 -114.713085 90 394ft 0kts
08-Jan-18 10:26 33.614051 -114.713085 90 394ft 0kts
08-Jan-18 10:27 33.614051 -114.713085 90 394ft 0kts
08-Jan-18 10:28 33.614051 -114.713085 91 394ft 0kts
08-Jan-18 10:29 33.614051 -114.713085 90 394ft 0kts
08-Jan-18 10:30 33.614051 -114.713085 90 394ft 0kts
08-Jan-18 10:31 33.615104 -114.712351 68 394ft 13kts
08-Jan-18 10:32 33.615381 -114.706656 14 394ft 3kts
08-Jan-18 10:33 33.615388 -114.706654 12 394ft 0kts
08-Jan-18 10:34 33.615388 -114.706654 12 394ft 0kts
08-Jan-18 10:35 33.616262 -114.706406 334 394ft 13kts
08-Jan-18 10:36 33.616232 -114.728701 268 992ft 99kts
08-Jan-18 10:37 33.617570 -114.762575 277 2040ft 112kts
08-Jan-18 10:38 33.622316 -114.799136 278 3171ft 106kts
08-Jan-18 10:39 33.626804 -114.833140 278 4273ft 104kts
08-Jan-18 10:40 33.631244 -114.867028 278 5360ft 103kts
08-Jan-18 10:41 33.635701 -114.901084 278 6352ft 103kts
08-Jan-18 10:42 33.641021 -114.943228 278 6517ft 150kts
08-Jan-18 10:43 33.647703 -114.995731 278 6512ft 165kts
08-Jan-18 10:44 33.654937 -115.051716 278 6484ft 171kts
08-Jan-18 10:45 33.662330 -115.108427 279 6484ft 172kts
08-Jan-18 10:46 33.669763 -115.165296 279 6484ft 172kts
08-Jan-18 10:47 33.677251 -115.222476 279 6483ft 173kts
08-Jan-18 10:48 33.684727 -115.279470 279 6483ft 173kts
08-Jan-18 10:49 33.692190 -115.336274 279 6483ft 173kts
08-Jan-18 10:50 33.699718 -115.393363 279 6483ft 172kts
08-Jan-18 10:51 33.700172 -115.450811 268 6483ft 172kts
08-Jan-18 10:52 33.698798 -115.498805 268 6483ft 172kts
08-Jan-18 10:53 33.694376 -115.556116 264 6485ft 173kts
08-Jan-18 10:54 33.688555 -115.623206 264 6489ft 173kts
08-Jan-18 10:55 33.684396 -115.671217 263 6484ft 173kts
08-Jan-18 10:56 33.679444 -115.728411 263 6505ft 174kts
08-Jan-18 10:57 33.674433 -115.786463 263 6488ft 174kts
08-Jan-18 10:58 33.669485 -115.843964 264 6486ft 173kts
08-Jan-18 10:59 33.670310 -115.901363 273 6494ft 173kts
08-Jan-18 11:00 33.672907 -115.958614 273 6492ft 172kts
08-Jan-18 11:01 33.685136 -116.013691 291 6483ft 171kts
08-Jan-18 11:02 33.702266 -116.066971 291 6483ft 171kts
08-Jan-18 11:03 33.720729 -116.119461 297 6484ft 170kts
08-Jan-18 11:04 33.742059 -116.169528 297 6483ft 170kts
08-Jan-18 11:05 33.763631 -116.220055 297 6483ft 170kts
08-Jan-18 11:06 33.785300 -116.270790 297 6483ft 170kts
08-Jan-18 11:07 33.806467 -116.320326 297 6500ft 169kts
08-Jan-18 11:08 33.828057 -116.370830 297 6511ft 170kts
08-Jan-18 11:09 33.849696 -116.421456 297 6511ft 170kts
08-Jan-18 11:10 33.871331 -116.472049 297 6510ft 170kts
08-Jan-18 11:11 33.891574 -116.523647 288 6511ft 170kts
08-Jan-18 11:12 33.905213 -116.577409 277 6113ft 164kts
08-Jan-18 11:13 33.911613 -116.630716 278 5495ft 159kts
08-Jan-18 11:14 33.917782 -116.682370 277 4917ft 157kts
08-Jan-18 11:15 33.923581 -116.733675 274 4293ft 155kts
08-Jan-18 11:16 33.927628 -116.787477 275 3761ft 164kts
08-Jan-18 11:17 33.930446 -116.838376 270 3759ft 141kts
08-Jan-18 11:18 33.930698 -116.884566 270 3764ft 136kts
08-Jan-18 11:19 33.930125 -116.929945 256 3795ft 136kts
08-Jan-18 11:20 33.920398 -116.974852 255 3768ft 146kts
08-Jan-18 11:21 33.898465 -117.015216 210 3710ft 162kts
08-Jan-18 11:22 33.855356 -117.034017 173 3363ft 175kts
08-Jan-18 11:23 33.809425 -117.028635 174 2857ft 161kts
08-Jan-18 11:24 33.768896 -117.032578 200 2402ft 156kts
08-Jan-18 11:25 33.731667 -117.049656 200 2394ft 137kts
08-Jan-18 11:26 33.696998 -117.066010 201 2392ft 132kts
08-Jan-18 11:27 33.663337 -117.080658 199 2473ft 124kts
08-Jan-18 11:28 33.629497 -117.094424 201 2542ft 123kts
08-Jan-18 11:29 33.603590 -117.108010 202 2394ft 104kts
08-Jan-18 11:30 33.577646 -117.116750 192 2263ft 90kts
08-Jan-18 11:31 33.555045 -117.123505 191 2325ft 80kts
08-Jan-18 11:32 33.558804 -117.132472 11 1554ft 78kts
08-Jan-18 11:33 33.573976 -117.128557 11 1334ft 8kts
08-Jan-18 11:34 33.574602 -117.129029 240 1334ft 0kts
08-Jan-18 11:35 33.575261 -117.129027 9 1334ft 9kts
08-Jan-18 11:36 33.575675 -117.129537 102 1334ft 0kts
08-Jan-18 11:37 33.575675 -117.129538 102 1334ft 0kts
08-Jan-18 11:38 33.575675 -117.129538 102 1334ft 0kts
08-Jan-18 11:39 33.575675 -117.129538 102 1334ft 0kts
08-Jan-18 11:40 33.575675 -117.129538 102 1334ft 0kts
08-Jan-18 11:41 33.575675 -117.129538 102 1334ft 0kts
08-Jan-18 11:42 33.575675 -117.129538 102 1334ft 0kts
08-Jan-18 11:43 33.575675 -117.129538 102 1334ft 0kts
08-Jan-18 11:44 33.575675 -117.129538 102 1334ft 0kts
08-Jan-18 11:45 33.575675 -117.129538 102 1334ft 0kts
08-Jan-18 11:46 33.575675 -117.129538 102 1334ft 0kts
08-Jan-18 11:47 33.575675 -117.129538 102 1334ft 0kts
08-Jan-18 11:48 33.575675 -117.129538 102 1334ft 0kts

Navigation Log

Ident Type
Flight plan parsing failed, navigation log unavailable